createdAt,value
2019-06-20T00:02:07.800Z,6.07
2019-06-20T00:04:53.608Z,5.83
2019-06-20T00:07:29.084Z,6.77
2019-06-20T00:09:59.773Z,5.93
2019-06-20T00:12:36.145Z,6.03
2019-06-20T00:15:18.687Z,6.53
2019-06-20T00:17:49.968Z,6.33
2019-06-20T00:20:23.113Z,6.70
2019-06-20T00:22:54.330Z,6.90
2019-06-20T00:25:25.561Z,6.27
2019-06-20T00:27:57.163Z,5.93
2019-06-20T00:30:51.522Z,6.50
2019-06-20T00:33:21.271Z,6.50
2019-06-20T00:35:52.870Z,6.27
2019-06-20T00:38:24.610Z,6.30
2019-06-20T00:40:55.429Z,5.90
2019-06-20T00:43:28.173Z,6.33
2019-06-20T00:45:58.875Z,6.10
2019-06-20T00:48:29.799Z,6.03
2019-06-20T00:51:04.895Z,6.87
2019-06-20T00:53:35.764Z,5.73
2019-06-20T00:56:07.050Z,6.23
2019-06-20T00:58:38.116Z,6.03
2019-06-20T01:01:08.998Z,6.13
2019-06-20T01:03:39.681Z,7.03
2019-06-20T01:06:10.326Z,6.30
2019-06-20T01:08:41.003Z,6.20
2019-06-20T01:11:11.529Z,6.80
2019-06-20T01:13:42.569Z,6.73
2019-06-20T01:16:13.345Z,6.87
2019-06-20T01:18:43.931Z,6.03
2019-06-20T01:21:16.664Z,6.63
2019-06-20T01:23:47.444Z,6.87
2019-06-20T01:26:20.988Z,6.70
2019-06-20T01:28:52.246Z,6.90
2019-06-20T01:31:22.897Z,6.70
2019-06-20T01:33:56.961Z,6.70
2019-06-20T01:36:29.397Z,6.50
2019-06-20T01:39:04.265Z,5.63
2019-06-20T01:41:51.455Z,5.70
2019-06-20T01:44:43.192Z,6.40
2019-06-20T01:47:33.432Z,6.10
2019-06-20T01:50:18.043Z,6.90
2019-06-20T01:53:00.845Z,6.43
2019-06-20T01:55:34.464Z,6.23
2019-06-20T01:58:05.420Z,6.00
2019-06-20T02:00:51.263Z,6.40
2019-06-20T02:03:36.550Z,6.50
2019-06-20T02:06:08.666Z,6.60
2019-06-20T02:08:41.839Z,6.47
2019-06-20T02:11:12.660Z,6.33
2019-06-20T02:13:47.636Z,5.70
2019-06-20T02:16:40.264Z,5.63
2019-06-20T02:19:11.100Z,6.20
2019-06-20T02:21:43.081Z,6.77
2019-06-20T02:24:49.172Z,6.20
2019-06-20T02:27:40.163Z,6.00
2019-06-20T02:30:13.574Z,6.43
2019-06-20T02:32:44.546Z,5.53
2019-06-20T02:35:15.701Z,5.33
2019-06-20T02:37:46.488Z,5.50
2019-06-20T02:40:27.150Z,5.67
2019-06-20T02:42:59.238Z,5.40
2019-06-20T02:45:30.017Z,5.10
2019-06-20T02:48:08.001Z,5.37
2019-06-20T02:50:40.294Z,4.90
2019-06-20T02:53:12.284Z,4.60
2019-06-20T02:55:42.882Z,4.43
2019-06-20T02:58:13.587Z,4.50
2019-06-20T03:00:58.753Z,4.30
2019-06-20T03:03:34.580Z,4.90
2019-06-20T03:06:07.560Z,4.50
2019-06-20T03:08:38.413Z,4.00
2019-06-20T03:11:13.045Z,4.63
2019-06-20T03:13:45.311Z,4.27
2019-06-20T03:16:15.914Z,3.80
2019-06-20T03:18:49.612Z,4.10
2019-06-20T03:21:25.177Z,3.90
2019-06-20T03:23:55.752Z,3.63
2019-06-20T03:26:26.765Z,3.60
2019-06-20T03:28:57.918Z,3.60
2019-06-20T03:31:28.523Z,4.00
2019-06-20T03:33:59.697Z,3.57
2019-06-20T03:36:30.459Z,4.33
2019-06-20T03:39:01.108Z,4.23
2019-06-20T03:41:33.570Z,4.23
2019-06-20T03:44:06.738Z,4.10
2019-06-20T03:46:39.112Z,4.50
2019-06-20T03:49:09.692Z,4.60
2019-06-20T03:51:40.629Z,4.53
2019-06-20T03:54:12.508Z,4.17
2019-06-20T03:56:44.083Z,4.33
2019-06-20T03:59:14.844Z,3.80
2019-06-20T04:01:49.019Z,4.10
2019-06-20T04:04:17.938Z,3.87
2019-06-20T04:06:48.522Z,4.17
2019-06-20T04:09:19.361Z,4.00
2019-06-20T04:11:50.456Z,3.83
2019-06-20T04:14:21.187Z,3.93
2019-06-20T04:16:52.370Z,4.60
2019-06-20T04:19:23.137Z,4.40
2019-06-20T04:21:53.840Z,4.50
2019-06-20T04:24:27.847Z,4.20
2019-06-20T04:27:08.891Z,4.07
2019-06-20T04:29:40.455Z,3.73
2019-06-20T04:32:11.654Z,3.97
2019-06-20T04:34:42.184Z,3.97
2019-06-20T04:37:12.684Z,3.97
2019-06-20T04:39:43.906Z,4.20
2019-06-20T04:42:17.753Z,3.80
2019-06-20T04:44:51.786Z,4.00
2019-06-20T04:47:44.078Z,4.20
2019-06-20T04:50:30.569Z,4.00
2019-06-20T04:53:09.333Z,4.17
2019-06-20T04:56:41.908Z,4.10
2019-06-20T04:59:19.870Z,4.13
2019-06-20T05:01:56.081Z,3.93
2019-06-20T05:04:52.151Z,4.27
2019-06-20T05:07:23.717Z,4.27
2019-06-20T05:10:56.462Z,4.70
2019-06-20T05:14:26.319Z,4.53
2019-06-20T05:17:09.634Z,4.20
2019-06-20T05:20:16.611Z,4.57
2019-06-20T05:23:18.019Z,4.83
2019-06-20T05:29:48.656Z,4.93
2019-06-20T05:33:06.125Z,5.07
2019-06-20T05:35:46.045Z,5.70
2019-06-20T05:38:26.959Z,5.47
2019-06-20T05:41:33.283Z,5.60
2019-06-20T05:44:44.941Z,5.90
2019-06-20T05:48:11.321Z,5.80
2019-06-20T05:51:05.155Z,5.13
2019-06-20T05:53:43.024Z,5.57
2019-06-20T05:56:26.701Z,4.73
2019-06-20T05:58:57.812Z,4.70
2019-06-20T06:02:09.288Z,5.60
2019-06-20T06:04:45.933Z,4.90
2019-06-20T06:08:06.598Z,4.63
2019-06-20T06:19:52.727Z,4.87
2019-06-20T06:44:16.046Z,5.80
2019-06-20T06:46:59.516Z,6.20
2019-06-20T06:49:39.821Z,6.70
2019-06-20T06:52:16.713Z,6.17
2019-06-20T06:54:50.930Z,5.87
2019-06-20T06:57:21.912Z,5.70
2019-06-20T07:00:52.376Z,5.33
2019-06-20T07:07:32.079Z,4.90
2019-06-20T07:10:05.296Z,5.53
2019-06-20T07:12:48.488Z,4.70
2019-06-20T07:15:22.497Z,5.00
2019-06-20T07:17:53.362Z,4.90
2019-06-20T07:20:24.784Z,5.00
2019-06-20T07:22:55.756Z,5.03
2019-06-20T07:25:31.392Z,5.67
2019-06-20T07:28:05.195Z,5.50
2019-06-20T07:30:35.879Z,5.83
2019-06-20T07:33:06.448Z,6.40
2019-06-20T07:35:45.164Z,6.90
2019-06-20T07:38:42.279Z,6.67
2019-06-20T07:41:13.274Z,7.03
2019-06-20T07:43:59.258Z,7.17
2019-06-20T07:46:39.627Z,8.03
2019-06-20T07:49:10.865Z,8.60
2019-06-20T07:51:41.612Z,8.50
2019-06-20T07:54:14.937Z,9.07
2019-06-20T07:56:45.672Z,11.13
2019-06-20T07:59:16.184Z,11.13
2019-06-20T08:01:46.766Z,12.43
2019-06-20T08:04:17.497Z,12.47
2019-06-20T08:06:47.935Z,12.97
2019-06-20T08:09:21.983Z,13.53
2019-06-20T08:11:50.337Z,14.77
2019-06-20T08:14:20.773Z,14.20
2019-06-20T08:16:51.353Z,12.50
2019-06-20T08:19:22.019Z,14.90
2019-06-20T08:22:02.095Z,13.90
2019-06-20T08:24:33.277Z,13.67
2019-06-20T08:27:04.894Z,14.50
2019-06-20T08:30:12.834Z,12.63
2019-06-20T08:33:03.562Z,13.33
2019-06-20T08:35:40.279Z,13.13
2019-06-20T08:38:33.596Z,12.27
2019-06-20T08:41:04.754Z,13.97
2019-06-20T08:43:39.239Z,12.77
2019-06-20T08:46:10.403Z,14.10
2019-06-20T08:48:41.518Z,12.70
2019-06-20T08:51:14.645Z,13.07
2019-06-20T08:53:45.511Z,12.57
2019-06-20T08:56:15.924Z,13.00
2019-06-20T08:58:46.365Z,12.50
2019-06-20T09:01:16.756Z,12.00
2019-06-20T09:03:47.227Z,11.93
2019-06-20T09:06:17.732Z,11.90
2019-06-20T09:08:48.204Z,10.63
2019-06-20T09:11:18.718Z,10.73
2019-06-20T09:13:48.929Z,9.60
2019-06-20T09:16:24.559Z,9.57
2019-06-20T09:18:53.199Z,6.40
2019-06-20T09:21:23.670Z,7.30
2019-06-20T09:23:54.213Z,6.70
2019-06-20T09:26:24.627Z,6.20
2019-06-20T09:28:55.659Z,7.63
2019-06-20T09:31:26.321Z,7.37
2019-06-20T09:34:00.027Z,7.80
2019-06-20T09:36:28.998Z,7.80
2019-06-20T09:38:59.619Z,7.73
2019-06-20T09:41:30.272Z,8.17
2019-06-20T09:44:00.671Z,7.57
2019-06-20T09:46:31.215Z,6.60
2019-06-20T09:49:02.799Z,6.00
2019-06-20T09:51:33.687Z,6.10
2019-06-20T09:54:04.588Z,5.10
2019-06-20T09:56:37.319Z,5.03
2019-06-20T09:59:07.745Z,4.63
2019-06-20T10:01:38.139Z,4.60
2019-06-20T10:04:08.699Z,4.63
2019-06-20T10:06:40.098Z,4.77
2019-06-20T10:09:10.491Z,6.50
2019-06-20T10:11:40.993Z,3.77
2019-06-20T10:14:12.474Z,3.60
2019-06-20T10:16:47.458Z,2.57
2019-06-20T10:19:15.375Z,2.10
2019-06-20T10:21:47.853Z,2.10
2019-06-20T10:24:19.753Z,2.30
2019-06-20T10:26:51.635Z,2.13
2019-06-20T10:29:21.978Z,2.30
2019-06-20T10:31:53.157Z,2.47
2019-06-20T10:34:23.978Z,3.17
2019-06-20T10:36:54.531Z,3.10
2019-06-20T10:39:27.597Z,3.87
2019-06-20T10:42:00.324Z,5.37
2019-06-20T10:44:30.732Z,6.77
2019-06-20T10:47:01.050Z,6.17
2019-06-20T10:49:31.515Z,6.53
2019-06-20T10:52:02.204Z,6.20
2019-06-20T10:54:34.982Z,6.40
2019-06-20T10:57:05.329Z,6.23
2019-06-20T10:59:36.911Z,6.30
2019-06-20T11:02:07.501Z,5.90
2019-06-20T11:04:40.525Z,7.13
2019-06-20T11:07:10.484Z,8.30
2019-06-20T11:09:41.247Z,9.93
2019-06-20T11:12:11.710Z,11.63
2019-06-20T11:14:42.284Z,11.57
2019-06-20T11:17:12.704Z,12.33
2019-06-20T11:19:43.782Z,10.40
2019-06-20T11:22:14.386Z,10.53
2019-06-20T11:24:45.176Z,9.33
2019-06-20T11:27:18.367Z,8.87
2019-06-20T11:29:48.898Z,11.50
2019-06-20T11:32:19.300Z,9.07
2019-06-20T11:34:52.091Z,10.27
2019-06-20T11:37:22.575Z,7.70
2019-06-20T11:39:52.874Z,9.33
2019-06-20T11:42:23.323Z,8.33
2019-06-20T11:45:02.796Z,8.33
2019-06-20T11:47:34.910Z,8.20
2019-06-20T11:50:05.672Z,8.50
2019-06-20T11:52:42.031Z,9.53
2019-06-20T11:55:10.142Z,9.27
2019-06-20T11:57:40.606Z,9.33
2019-06-20T12:00:11.280Z,9.30
2019-06-20T12:02:44.092Z,8.73
2019-06-20T12:05:14.723Z,9.70
2019-06-20T12:07:47.157Z,10.60
2019-06-20T12:10:19.896Z,9.90
2019-06-20T12:12:50.902Z,10.77
2019-06-20T12:15:21.711Z,11.17
2019-06-20T12:17:52.494Z,10.40
2019-06-20T12:20:23.303Z,10.37
2019-06-20T12:22:53.742Z,9.67
2019-06-20T12:25:25.270Z,10.10
2019-06-20T12:27:55.783Z,12.40
2019-06-20T12:30:26.351Z,11.43
2019-06-20T12:32:56.767Z,11.20
2019-06-20T12:35:27.082Z,13.47
2019-06-20T12:37:57.680Z,12.20
2019-06-20T12:40:28.171Z,12.70
2019-06-20T12:42:58.650Z,13.17
2019-06-20T12:45:29.107Z,14.70
2019-06-20T12:47:59.439Z,16.07
2019-06-20T12:50:29.767Z,16.40
2019-06-20T12:53:00.452Z,18.43
2019-06-20T12:55:30.971Z,19.97
2019-06-20T12:58:01.348Z,20.17
2019-06-20T13:00:33.553Z,20.10
2019-06-20T13:03:03.955Z,22.30
2019-06-20T13:05:34.200Z,20.80
2019-06-20T13:08:05.016Z,21.00
2019-06-20T13:10:35.401Z,20.93
2019-06-20T13:13:05.868Z,19.73
2019-06-20T13:15:36.319Z,20.77
2019-06-20T13:18:06.825Z,18.93
2019-06-20T13:20:38.805Z,19.83
2019-06-20T13:23:09.308Z,21.30
2019-06-20T13:25:40.946Z,19.63
2019-06-20T13:28:11.395Z,18.23
2019-06-20T13:30:47.393Z,15.63
2019-06-20T13:33:15.753Z,15.90
2019-06-20T13:35:46.243Z,14.30
2019-06-20T13:38:16.942Z,14.57
2019-06-20T13:40:47.309Z,12.47
2019-06-20T13:43:17.841Z,13.57
2019-06-20T13:45:48.283Z,12.50
2019-06-20T13:48:20.662Z,10.90
2019-06-20T13:50:51.116Z,11.17
2019-06-20T13:53:22.273Z,11.00
2019-06-20T13:55:53.501Z,11.03
2019-06-20T13:58:24.253Z,11.93
2019-06-20T14:00:55.137Z,11.90
2019-06-20T14:03:25.563Z,11.70
2019-06-20T14:05:56.345Z,14.47
2019-06-20T14:08:26.907Z,13.23
2019-06-20T14:10:57.587Z,15.80
2019-06-20T14:13:28.271Z,15.10
2019-06-20T14:16:26.209Z,13.10
2019-06-20T14:19:01.611Z,14.03
2019-06-20T14:21:36.924Z,11.47
2019-06-20T14:24:16.281Z,11.53
2019-06-20T14:29:40.118Z,11.50
2019-06-20T14:32:29.401Z,11.60
2019-06-20T14:35:13.627Z,12.00
2019-06-20T14:38:00.691Z,12.90
2019-06-20T14:40:35.188Z,12.33
2019-06-20T14:43:19.290Z,12.37
2019-06-20T14:45:57.306Z,11.23
2019-06-20T14:48:27.930Z,10.33
2019-06-20T14:50:58.495Z,10.00
2019-06-20T14:53:29.247Z,10.73
2019-06-20T14:56:04.125Z,10.20
2019-06-20T14:58:34.540Z,10.17
2019-06-20T15:01:04.991Z,8.73
2019-06-20T15:03:35.365Z,7.53
2019-06-20T15:06:08.860Z,6.50
2019-06-20T15:08:39.176Z,7.43
2019-06-20T15:11:12.311Z,6.40
2019-06-20T15:13:42.807Z,5.20
2019-06-20T15:16:13.175Z,5.73
2019-06-20T15:18:46.471Z,5.83
2019-06-20T15:21:15.472Z,7.13
2019-06-20T15:23:47.269Z,6.47
2019-06-20T15:26:18.275Z,6.70
2019-06-20T15:28:49.729Z,7.83
2019-06-20T15:31:20.718Z,7.23
2019-06-20T15:33:51.602Z,7.00
2019-06-20T15:36:24.131Z,7.43
2019-06-20T15:38:57.244Z,6.67
2019-06-20T15:41:28.323Z,5.97
2019-06-20T15:43:58.682Z,5.93
2019-06-20T15:46:30.619Z,7.00
2019-06-20T15:49:15.388Z,6.30
2019-06-20T15:51:33.731Z,7.33
2019-06-20T15:54:04.327Z,7.27
2019-06-20T15:56:34.964Z,7.90
2019-06-20T15:59:05.308Z,8.43
2019-06-20T16:01:35.957Z,8.83
2019-06-20T16:04:06.616Z,10.10
2019-06-20T16:06:53.589Z,8.60
2019-06-20T16:09:25.710Z,8.53
2019-06-20T16:11:59.695Z,9.20
2019-06-20T16:14:33.515Z,8.80
2019-06-20T16:17:05.678Z,9.93
2019-06-20T16:19:39.255Z,9.33
2019-06-20T16:22:10.199Z,8.50
2019-06-20T16:24:40.632Z,7.27
2019-06-20T16:27:11.348Z,7.20
2019-06-20T16:29:45.298Z,7.90
2019-06-20T16:32:25.746Z,7.87
2019-06-20T16:35:19.075Z,8.13
2019-06-20T16:37:49.411Z,6.33
2019-06-20T16:40:27.687Z,5.80
2019-06-20T16:42:58.397Z,9.43
2019-06-20T16:45:30.375Z,8.87
2019-06-20T16:48:00.879Z,7.80
2019-06-20T16:50:33.311Z,10.00
2019-06-20T16:53:04.540Z,8.90
2019-06-20T16:55:35.326Z,10.80
2019-06-20T16:58:08.775Z,9.90
2019-06-20T17:00:39.603Z,9.33
2019-06-20T17:03:09.940Z,9.93
2019-06-20T17:05:40.417Z,10.47
2019-06-20T17:08:10.935Z,11.77
2019-06-20T17:10:41.471Z,11.07
2019-06-20T17:13:12.043Z,10.97
2019-06-20T17:15:42.839Z,11.10
2019-06-20T17:18:14.171Z,11.73
2019-06-20T17:20:46.068Z,10.90
2019-06-20T17:23:16.508Z,11.33
2019-06-20T17:25:47.005Z,9.80
2019-06-20T17:28:17.626Z,11.10
2019-06-20T17:30:48.164Z,12.23
2019-06-20T17:33:18.617Z,11.00
2019-06-20T17:35:49.232Z,10.63
2019-06-20T17:38:19.707Z,11.53
2019-06-20T17:40:50.066Z,11.40
2019-06-20T17:43:20.788Z,10.40
2019-06-20T17:45:51.408Z,10.90
2019-06-20T17:48:22.143Z,9.40
2019-06-20T17:50:55.091Z,8.60
2019-06-20T17:53:25.535Z,8.27
2019-06-20T17:55:56.216Z,6.93
2019-06-20T17:58:27.045Z,4.77
2019-06-20T18:00:57.782Z,4.47
2019-06-20T18:03:28.831Z,4.73
2019-06-20T18:05:59.558Z,4.60
2019-06-20T18:08:30.245Z,6.33
2019-06-20T18:11:01.147Z,4.20
2019-06-20T18:13:31.912Z,4.20
2019-06-20T18:16:02.812Z,3.60
2019-06-20T18:18:33.592Z,5.23
2019-06-20T18:21:05.389Z,3.70
2019-06-20T18:23:36.405Z,4.10
2019-06-20T18:26:07.556Z,3.37
2019-06-20T18:28:38.203Z,3.70
2019-06-20T18:31:14.876Z,3.90
2019-06-20T18:33:45.662Z,3.83
2019-06-20T18:36:16.433Z,4.13
2019-06-20T18:38:47.086Z,4.80
2019-06-20T18:41:17.674Z,4.10
2019-06-20T18:43:48.539Z,4.27
2019-06-20T18:46:19.487Z,4.00
2019-06-20T18:48:50.221Z,3.30
2019-06-20T18:51:20.611Z,3.60
2019-06-20T18:53:51.359Z,2.80
2019-06-20T18:56:22.167Z,3.03
2019-06-20T18:58:53.439Z,3.27
2019-06-20T19:01:25.159Z,3.10
2019-06-20T19:03:55.900Z,3.07
2019-06-20T19:06:35.529Z,2.73
2019-06-20T19:08:58.710Z,3.10
2019-06-20T19:11:29.384Z,2.90
2019-06-20T19:14:00.363Z,2.30
2019-06-20T19:16:31.203Z,2.00
2019-06-20T19:19:01.609Z,2.60
2019-06-20T19:21:35.989Z,2.20
2019-06-20T19:24:06.636Z,2.60
2019-06-20T19:26:37.607Z,2.47
2019-06-20T19:29:08.630Z,2.03
2019-06-20T19:31:39.279Z,2.37
2019-06-20T19:34:09.892Z,2.03
2019-06-20T19:36:44.458Z,2.37
2019-06-20T19:39:15.240Z,1.50
2019-06-20T19:41:53.588Z,1.50
2019-06-20T19:44:24.515Z,1.60
2019-06-20T19:46:56.172Z,1.70
2019-06-20T19:49:27.071Z,1.73
2019-06-20T19:51:57.608Z,1.80
2019-06-20T19:54:28.283Z,1.77
2019-06-20T19:57:00.581Z,1.40
2019-06-20T19:59:37.217Z,1.10
2019-06-20T20:02:08.329Z,1.77
2019-06-20T20:04:39.181Z,1.33
2019-06-20T20:07:15.388Z,1.17
2019-06-20T20:09:46.902Z,1.10
2019-06-20T20:12:23.233Z,1.20
2019-06-20T20:14:54.451Z,1.40
2019-06-20T20:17:25.165Z,1.23
2019-06-20T20:19:56.141Z,1.30
2019-06-20T20:22:26.629Z,1.40
2019-06-20T20:24:57.227Z,1.07
2019-06-20T20:27:27.854Z,1.10
2019-06-20T20:29:58.551Z,0.90
2019-06-20T20:32:29.220Z,0.90
2019-06-20T20:35:00.421Z,0.87
2019-06-20T20:37:30.966Z,1.10
2019-06-20T20:40:05.240Z,0.77
2019-06-20T20:42:36.428Z,0.80
2019-06-20T20:45:17.809Z,0.60
2019-06-20T20:47:50.290Z,0.90
2019-06-20T20:50:21.821Z,0.73
2019-06-20T20:52:58.664Z,0.67
2019-06-20T20:55:32.664Z,0.90
2019-06-20T20:58:03.716Z,1.00
2019-06-20T21:00:49.855Z,0.70
2019-06-20T21:03:20.652Z,0.60
2019-06-20T21:05:51.986Z,0.87
2019-06-20T21:08:26.724Z,0.50
2019-06-20T21:11:03.925Z,0.70
2019-06-20T21:13:34.823Z,1.00
2019-06-20T21:16:08.556Z,0.60
2019-06-20T21:18:42.117Z,0.80
2019-06-20T21:21:12.827Z,0.80
2019-06-20T21:23:43.447Z,0.67
2019-06-20T21:26:14.101Z,0.67
2019-06-20T21:28:44.962Z,0.80
2019-06-20T21:31:18.260Z,0.70
2019-06-20T21:33:54.475Z,1.00
2019-06-20T21:36:25.578Z,0.70
2019-06-20T21:38:56.595Z,1.00
2019-06-20T21:41:30.577Z,0.83
2019-06-20T21:44:01.337Z,0.90
2019-06-20T21:46:32.329Z,1.20
2019-06-20T21:49:03.180Z,0.73
2019-06-20T21:51:34.050Z,1.03
2019-06-20T21:54:05.203Z,0.80
2019-06-20T21:56:35.679Z,0.70
2019-06-20T21:59:06.883Z,1.13
2019-06-20T22:01:41.070Z,0.90
2019-06-20T22:04:12.029Z,0.97
2019-06-20T22:06:42.868Z,1.00
2019-06-20T22:09:14.726Z,0.90
2019-06-20T22:11:47.563Z,0.93
2019-06-20T22:14:19.293Z,1.10
2019-06-20T22:16:50.646Z,1.00
2019-06-20T22:19:22.965Z,1.20
2019-06-20T22:21:56.083Z,1.13
2019-06-20T22:24:26.975Z,1.00
2019-06-20T22:26:57.912Z,1.40
2019-06-20T22:29:28.543Z,1.30
2019-06-20T22:31:59.375Z,1.40
2019-06-20T22:34:30.215Z,1.07
2019-06-20T22:37:00.915Z,1.40
2019-06-20T22:39:31.805Z,1.37
2019-06-20T22:42:02.338Z,1.33
2019-06-20T22:44:32.915Z,1.87
2019-06-20T22:47:03.737Z,1.60
2019-06-20T22:49:34.621Z,1.30
2019-06-20T22:52:04.955Z,1.37
2019-06-20T22:54:40.875Z,1.40
2019-06-20T22:57:12.226Z,1.50
2019-06-20T22:59:46.566Z,2.10
2019-06-20T23:02:16.926Z,1.73
2019-06-20T23:04:53.886Z,1.50
2019-06-20T23:07:32.837Z,2.00
2019-06-20T23:10:10.301Z,1.70
2019-06-20T23:12:36.108Z,1.80
2019-06-20T23:15:13.988Z,1.67
2019-06-20T23:17:48.817Z,1.90
2019-06-20T23:20:19.594Z,2.13
2019-06-20T23:22:50.678Z,1.53
2019-06-20T23:25:22.722Z,1.80
2019-06-20T23:27:59.567Z,2.13
2019-06-20T23:30:36.419Z,1.67
2019-06-20T23:33:07.391Z,1.70
2019-06-20T23:35:46.402Z,2.13
2019-06-20T23:38:19.393Z,2.23
2019-06-20T23:40:50.265Z,1.73
2019-06-20T23:43:20.844Z,2.03
2019-06-20T23:45:51.542Z,2.27
2019-06-20T23:48:29.831Z,2.73
2019-06-20T23:51:00.631Z,2.00
2019-06-20T23:53:31.195Z,2.00
2019-06-20T23:56:02.096Z,2.20
2019-06-20T23:58:32.998Z,2.10
